Time;durP1;ratioP1;P1;durP2;ratioP2;P2;SDS_P1;SDS_P2;PMS_P1;PMS_P2;Temp;Humidity;BMP_temperature;BMP_pressure;BME280_temperature;BME280_humidity;BME280_pressure;Samples;Min_cycle;Max_cycle;Signal;HPM_P1;HPM_P2
2022/11/17 05:00:43;;;;;;;1.90;1.00;;;11.20;99.90;;;;;;5855441;23;20050;-65
2022/11/17 05:03:08;;;;;;;5.00;0.80;;;11.20;99.90;;;;;;4975949;28;20042;-65
2022/11/17 05:05:34;;;;;;;1.47;0.83;;;11.30;99.90;;;;;;4959095;28;20045;-65
2022/11/17 05:07:59;;;;;;;1.37;0.50;;;11.30;99.90;;;;;;4975942;28;20061;-65
2022/11/17 05:13:26;;;;;;;3.53;1.13;;;11.30;99.90;;;;;;4976338;28;20118;-64
2022/11/17 05:18:42;;;;;;;1.25;0.70;;;11.50;99.90;;;;;;4995820;28;20069;-66
2022/11/17 05:21:09;;;;;;;2.28;0.60;;;11.50;99.90;;;;;;4994596;28;20030;-65
2022/11/17 05:23:53;;;;;;;1.60;0.75;;;11.50;99.90;;;;;;4994673;28;20022;-66
2022/11/17 05:26:21;;;;;;;1.35;0.80;;;11.50;99.90;;;;;;4994224;28;20077;-66
2022/11/17 05:28:46;;;;;;;3.38;0.95;;;11.70;99.90;;;;;;5002610;28;20026;-66
2022/11/17 05:31:12;;;;;;;9.70;1.13;;;11.60;99.90;;;;;;5000613;28;20038;-66
2022/11/17 05:33:38;;;;;;;3.08;0.80;;;11.70;99.90;;;;;;4994447;28;20076;-66
2022/11/17 05:36:05;;;;;;;2.60;0.50;;;11.60;99.90;;;;;;4999489;28;20066;-66
2022/11/17 05:38:31;;;;;;;1.90;0.60;;;11.60;99.90;;;;;;4998408;28;20026;-66
2022/11/17 05:40:56;;;;;;;1.80;0.70;;;11.60;99.90;;;;;;4999679;28;20114;-66
2022/11/17 05:43:22;;;;;;;1.90;0.70;;;11.50;99.90;;;;;;5006308;28;20057;-66
2022/11/17 05:45:48;;;;;;;3.10;0.82;;;11.50;99.90;;;;;;5002974;28;20057;-67
2022/11/17 05:48:13;;;;;;;1.43;0.63;;;11.60;99.90;;;;;;5006367;28;20044;-67
2022/11/17 05:50:39;;;;;;;1.80;0.63;;;11.70;99.90;;;;;;5010489;28;20269;-66
2022/11/17 05:53:05;;;;;;;4.00;0.77;;;11.60;99.90;;;;;;5004851;28;20499;-67
2022/11/17 05:55:31;;;;;;;2.05;0.93;;;11.60;99.90;;;;;;4993671;28;20145;-67
2022/11/17 05:58:28;;;;;;;3.17;2.07;;;11.50;99.90;;;;;;4992170;28;20046;-67
2022/11/17 06:00:55;;;;;;;2.85;1.30;;;11.60;99.90;;;;;;4952941;29;20065;-67
2022/11/17 06:03:27;;;;;;;3.03;0.93;;;11.60;99.90;;;;;;4941873;29;20484;-67
2022/11/17 06:05:53;;;;;;;2.90;1.30;;;11.60;99.90;;;;;;4949684;28;20408;-67
2022/11/17 06:08:19;;;;;;;2.10;1.00;;;11.40;99.90;;;;;;4946779;29;20031;-66
2022/11/17 06:10:45;;;;;;;3.45;1.08;;;11.40;99.90;;;;;;4919279;29;20036;-67
2022/11/17 06:13:10;;;;;;;1.23;0.60;;;11.50;99.90;;;;;;4945634;29;20039;-70
2022/11/17 06:15:37;;;;;;;1.87;0.97;;;11.40;99.90;;;;;;4926456;29;20040;-70
2022/11/17 06:18:14;;;;;;;1.20;0.80;;;11.50;99.90;;;;;;4935621;29;20466;-68
2022/11/17 06:20:45;;;;;;;3.35;0.63;;;11.50;99.90;;;;;;4924722;29;20039;-69
2022/11/17 06:23:11;;;;;;;5.57;1.00;;;11.50;99.90;;;;;;4936442;29;20039;-67
2022/11/17 06:25:37;;;;;;;2.78;0.75;;;11.50;99.90;;;;;;4937948;29;20032;-67
2022/11/17 06:28:06;;;;;;;2.45;0.93;;;11.60;99.90;;;;;;4938099;29;20040;-65
2022/11/17 06:30:33;;;;;;;5.18;1.20;;;11.60;99.90;;;;;;4941532;29;20032;-68
2022/11/17 06:33:00;;;;;;;3.72;0.90;;;11.60;99.90;;;;;;4942238;29;20031;-70
2022/11/17 06:35:27;;;;;;;1.45;0.70;;;11.70;99.90;;;;;;4940851;29;20082;-70
2022/11/17 06:37:53;;;;;;;2.30;1.27;;;11.70;99.90;;;;;;4973444;28;20074;-67
2022/11/17 06:40:21;;;;;;;3.23;0.93;;;11.70;99.90;;;;;;4977960;28;20058;-70
2022/11/17 06:45:44;;;;;;;2.03;0.60;;;11.90;99.90;;;;;;4997234;28;20112;-67
2022/11/17 06:48:12;;;;;;;1.85;0.70;;;11.80;99.90;;;;;;4995850;28;20026;-66
2022/11/17 06:50:38;;;;;;;2.08;1.20;;;11.90;99.90;;;;;;4995703;28;20077;-67
2022/11/17 06:53:06;;;;;;;2.03;0.73;;;11.90;99.90;;;;;;4997183;28;20026;-68
2022/11/17 06:55:33;;;;;;;1.50;0.82;;;11.90;99.90;;;;;;4996099;28;20031;-66
2022/11/17 06:58:10;;;;;;;3.10;0.70;;;11.80;99.90;;;;;;4995524;28;20118;-67
2022/11/17 07:00:36;;;;;;;;;;;11.90;99.90;;;;;;4997045;28;20027;-66
2022/11/17 07:03:04;;;;;;;4.03;1.00;;;12.00;99.90;;;;;;4995046;28;19914;-67
2022/11/17 07:05:31;;;;;;;2.80;0.80;;;12.00;99.90;;;;;;4996426;28;20548;-67
2022/11/17 07:08:00;;;;;;;;;;;11.90;99.90;;;;;;4994810;28;20026;-68
2022/11/17 07:10:27;;;;;;;2.33;0.70;;;12.00;99.90;;;;;;4996884;28;19917;-71
2022/11/17 07:12:53;;;;;;;2.25;0.95;;;11.90;99.90;;;;;;4996688;28;20475;-70
2022/11/17 07:15:18;;;;;;;3.25;1.23;;;11.90;99.90;;;;;;4994261;28;20148;-69
2022/11/17 07:17:44;;;;;;;1.90;0.80;;;12.00;99.90;;;;;;4995444;28;20368;-71
2022/11/17 07:20:10;;;;;;;5.70;0.90;;;12.00;99.90;;;;;;4994009;28;20113;-71
2022/11/17 07:22:40;;;;;;;4.35;1.00;;;12.10;99.90;;;;;;4996421;28;20644;-71
2022/11/17 07:25:06;;;;;;;5.88;1.15;;;12.00;99.90;;;;;;4997334;28;20033;-72
2022/11/17 07:27:32;;;;;;;3.08;1.10;;;12.10;99.90;;;;;;4997866;28;20111;-72
2022/11/17 07:29:57;;;;;;;2.97;0.90;;;12.10;99.90;;;;;;4997317;28;20058;-71
2022/11/17 07:32:23;;;;;;;2.40;0.73;;;12.10;99.90;;;;;;4995039;28;20026;-71
2022/11/17 07:34:49;;;;;;;2.45;0.80;;;12.20;99.90;;;;;;4996810;28;20027;-72
2022/11/17 07:37:15;;;;;;;2.65;0.80;;;12.20;99.90;;;;;;4996486;28;20030;-71
2022/11/17 07:39:40;;;;;;;7.55;0.95;;;12.30;99.90;;;;;;4996681;28;20023;-70
2022/11/17 07:42:06;;;;;;;5.63;1.17;;;12.30;99.90;;;;;;4996544;28;20024;-71
2022/11/17 07:44:32;;;;;;;3.40;0.80;;;12.60;99.90;;;;;;4997538;28;20270;-71
2022/11/17 07:46:57;;;;;;;3.83;0.80;;;12.60;99.90;;;;;;4998320;28;20031;-70
2022/11/17 07:49:23;;;;;;;4.07;0.90;;;12.70;99.90;;;;;;4997189;28;20472;-70
2022/11/17 07:51:48;;;;;;;3.17;0.93;;;12.70;99.90;;;;;;4997459;28;20379;-70
2022/11/17 07:54:14;;;;;;;2.57;0.77;;;12.80;99.90;;;;;;4996420;28;20038;-70
2022/11/17 07:56:39;;;;;;;5.23;1.43;;;12.70;99.90;;;;;;4995024;28;20026;-71
2022/11/17 07:59:05;;;;;;;5.13;0.97;;;12.80;99.90;;;;;;4995724;28;20030;-70
2022/11/17 08:01:31;;;;;;;2.33;0.90;;;12.80;99.90;;;;;;4996162;28;20026;-70
2022/11/17 08:03:57;;;;;;;10.47;1.30;;;12.70;99.90;;;;;;4996277;28;20387;-71
2022/11/17 08:06:23;;;;;;;2.85;0.88;;;12.80;99.90;;;;;;4996502;28;20446;-70
2022/11/17 08:08:49;;;;;;;;;;;12.80;99.90;;;;;;4995349;28;20118;-71
2022/11/17 08:11:15;;;;;;;4.07;1.00;;;12.80;99.90;;;;;;4994728;28;19909;-70
2022/11/17 08:13:41;;;;;;;4.25;0.98;;;12.90;99.90;;;;;;4996494;28;20026;-70
2022/11/17 08:16:08;;;;;;;3.70;1.10;;;12.90;99.90;;;;;;4997897;28;20046;-71
2022/11/17 08:18:36;;;;;;;4.65;0.90;;;12.90;99.90;;;;;;4996863;28;20265;-70
2022/11/17 08:21:02;;;;;;;4.15;0.90;;;13.00;99.90;;;;;;4995806;28;20030;-70
2022/11/17 08:23:28;;;;;;;4.07;1.30;;;13.10;99.90;;;;;;4995642;28;20026;-70
2022/11/17 08:25:54;;;;;;;4.93;0.90;;;13.10;99.90;;;;;;4995409;28;20069;-70
2022/11/17 08:28:19;;;;;;;5.60;1.13;;;13.30;99.90;;;;;;4994585;28;20022;-71
2022/11/17 08:30:45;;;;;;;3.03;0.87;;;13.30;99.90;;;;;;4994294;28;20049;-70
2022/11/17 08:33:10;;;;;;;5.87;1.07;;;13.40;99.90;;;;;;4993990;28;20030;-70
2022/11/17 08:35:36;;;;;;;4.90;0.90;;;13.50;99.90;;;;;;4995682;28;20026;-70
2022/11/17 08:38:02;;;;;;;7.20;2.10;;;13.60;99.90;;;;;;4994031;28;20018;-71
2022/11/17 08:40:27;;;;;;;3.05;0.80;;;13.60;99.90;;;;;;4995623;28;20034;-69
2022/11/17 08:42:54;;;;;;;4.03;0.93;;;13.60;99.90;;;;;;4994782;28;20033;-70
2022/11/17 08:45:19;;;;;;;;;;;13.70;99.90;;;;;;4994545;28;20261;-70
2022/11/17 08:47:45;;;;;;;3.97;1.20;;;13.70;99.90;;;;;;4994159;28;20256;-71
2022/11/17 08:50:11;;;;;;;3.03;0.70;;;13.70;99.90;;;;;;4994226;28;20030;-70
2022/11/17 08:52:36;;;;;;;4.37;0.90;;;13.80;99.90;;;;;;4995532;28;20273;-71
2022/11/17 08:55:04;;;;;;;3.47;0.85;;;13.80;99.90;;;;;;5000399;28;20040;-71
2022/11/17 08:57:31;;;;;;;7.18;2.45;;;13.80;99.90;;;;;;5000433;28;20553;-71
2022/11/17 08:59:57;;;;;;;5.03;0.95;;;13.70;99.90;;;;;;4997452;28;20034;-69
2022/11/17 09:02:23;;;;;;;4.00;0.88;;;13.80;99.90;;;;;;4993828;28;20077;-69
2022/11/17 09:04:49;;;;;;;2.50;0.70;;;13.90;99.90;;;;;;4993923;28;20034;-70
2022/11/17 09:07:15;;;;;;;2.90;0.98;;;14.00;99.90;;;;;;4994243;28;20119;-68
2022/11/17 09:09:40;;;;;;;3.00;0.70;;;13.90;99.90;;;;;;4995142;28;20061;-69
2022/11/17 09:12:06;;;;;;;3.73;1.00;;;13.90;99.90;;;;;;4993615;28;20699;-68
2022/11/17 09:14:32;;;;;;;5.60;0.90;;;13.90;99.90;;;;;;4993518;28;20026;-68
2022/11/17 09:16:57;;;;;;;4.97;1.00;;;13.80;99.90;;;;;;4994919;28;20038;-69
2022/11/17 09:19:23;;;;;;;4.53;1.00;;;13.90;99.90;;;;;;4995478;28;20268;-68
2022/11/17 09:21:48;;;;;;;3.60;0.80;;;14.00;99.90;;;;;;4994746;28;20027;-68
2022/11/17 09:24:15;;;;;;;2.27;0.60;;;13.90;99.90;;;;;;4997116;28;20479;-69
2022/11/17 09:26:40;;;;;;;;;;;13.80;99.90;;;;;;4998811;28;20018;-68
2022/11/17 09:29:07;;;;;;;5.15;0.90;;;13.90;99.90;;;;;;5000281;28;19909;-68
2022/11/17 09:31:34;;;;;;;7.93;1.80;;;13.90;99.90;;;;;;4999883;28;20049;-68
2022/11/17 09:33:59;;;;;;;7.03;1.08;;;14.10;99.90;;;;;;4998780;28;20026;-69
2022/11/17 09:36:25;;;;;;;4.00;0.73;;;14.10;99.90;;;;;;4997143;28;20033;-69
2022/11/17 09:38:51;;;;;;;3.40;0.90;;;14.20;99.90;;;;;;5000954;28;20456;-69
2022/11/17 09:41:44;;;;;;;2.53;1.20;;;14.10;99.90;;;;;;5004404;28;20044;-69
2022/11/17 09:44:39;;;;;;;5.65;0.90;;;14.10;99.90;;;;;;5004749;28;20281;-69
2022/11/17 09:47:36;;;;;;;3.55;0.75;;;13.90;99.90;;;;;;4995122;28;20047;-67
2022/11/17 09:50:15;;;;;;;4.85;1.00;;;13.80;99.90;;;;;;4995642;28;20391;-70
2022/11/17 09:52:57;;;;;;;3.30;0.98;;;13.80;99.90;;;;;;4978456;28;20384;-68
2022/11/17 09:55:40;;;;;;;7.45;1.10;;;13.90;99.90;;;;;;4992568;28;20037;-70
2022/11/17 09:58:30;;;;;;;10.13;1.42;;;13.90;99.90;;;;;;4983862;28;20093;-70
2022/11/17 10:00:56;;;;;;;6.15;0.98;;;13.90;99.90;;;;;;4984180;28;20456;-69
2022/11/17 10:03:27;;;;;;;6.10;0.90;;;14.00;99.90;;;;;;4987509;28;20053;-69
2022/11/17 10:05:54;;;;;;;7.30;1.35;;;13.90;99.90;;;;;;4989454;28;20110;-69
2022/11/17 10:08:46;;;;;;;7.70;1.15;;;14.00;99.90;;;;;;4994647;28;20100;-69
2022/11/17 10:11:31;;;;;;;3.22;0.90;;;14.00;99.90;;;;;;4986105;28;20046;-68
2022/11/17 10:14:12;;;;;;;4.15;1.00;;;14.20;99.90;;;;;;4989144;28;20026;-69
2022/11/17 10:16:44;;;;;;;4.38;1.20;;;14.40;99.90;;;;;;4989300;28;20168;-68
2022/11/17 10:19:13;;;;;;;4.90;1.27;;;14.40;99.90;;;;;;4986563;28;20018;-69
2022/11/17 10:21:39;;;;;;;4.78;1.20;;;14.50;99.90;;;;;;4986630;28;20100;-69
2022/11/17 10:24:04;;;;;;;5.13;1.08;;;14.50;99.90;;;;;;4973096;28;20550;-68
2022/11/17 10:26:46;;;;;;;5.13;1.20;;;14.50;99.90;;;;;;4988954;28;20177;-66
2022/11/17 10:29:14;;;;;;;4.43;1.05;;;14.40;99.90;;;;;;4981294;28;20278;-66
2022/11/17 10:31:45;;;;;;;7.03;1.30;;;14.20;99.90;;;;;;4973709;28;20046;-67
2022/11/17 10:34:31;;;;;;;6.07;1.23;;;14.20;99.90;;;;;;4973840;28;20037;-67
2022/11/17 10:37:03;;;;;;;4.60;0.85;;;14.10;99.90;;;;;;4973629;28;20392;-68
2022/11/17 10:39:36;;;;;;;7.45;1.65;;;14.00;99.90;;;;;;4974583;28;20031;-69
2022/11/17 10:42:26;;;;;;;6.90;1.13;;;13.80;99.90;;;;;;4986502;28;20386;-68
2022/11/17 10:44:55;;;;;;;6.55;1.40;;;13.80;99.90;;;;;;4988009;28;20477;-69
2022/11/17 10:47:36;;;;;;;7.32;1.25;;;13.60;99.90;;;;;;4974087;28;20106;-69
2022/11/17 10:50:22;;;;;;;7.65;1.75;;;13.50;99.90;;;;;;4972958;28;20136;-66
2022/11/17 10:52:49;;;;;;;8.10;1.17;;;13.40;99.90;;;;;;4974208;28;20027;-67
2022/11/17 10:55:18;;;;;;;5.38;1.17;;;13.40;99.90;;;;;;4974442;28;20086;-68
2022/11/17 10:57:47;;;;;;;7.13;1.23;;;13.40;99.90;;;;;;4974184;28;20105;-68
2022/11/17 11:00:23;;;;;;;5.63;1.10;;;13.40;99.90;;;;;;4974506;28;20073;-68
2022/11/17 11:03:01;;;;;;;9.32;2.20;;;13.50;99.90;;;;;;4972697;28;20435;-68
2022/11/17 11:05:26;;;;;;;8.40;1.40;;;13.70;99.90;;;;;;4985292;28;20033;-68
2022/11/17 11:08:21;;;;;;;7.73;1.13;;;13.80;99.90;;;;;;4987940;28;20031;-68
2022/11/17 11:10:50;;;;;;;4.72;1.15;;;13.80;99.90;;;;;;4980134;28;20019;-67
2022/11/17 11:13:33;;;;;;;9.95;1.45;;;13.80;99.90;;;;;;4978844;28;20030;-69
2022/11/17 11:15:59;;;;;;;7.20;1.38;;;13.80;99.90;;;;;;4976540;28;20031;-68
2022/11/17 11:18:28;;;;;;;4.87;1.00;;;13.90;99.90;;;;;;4977954;28;20030;-68
2022/11/17 11:21:15;;;;;;;8.35;1.40;;;14.00;99.90;;;;;;4977898;28;20022;-67
2022/11/17 11:23:47;;;;;;;7.47;1.00;;;13.90;99.90;;;;;;4992555;28;20034;-68
2022/11/17 11:26:42;;;;;;;3.63;0.80;;;13.80;99.90;;;;;;4994652;28;20517;-66
2022/11/17 11:29:19;;;;;;;5.00;1.05;;;14.10;99.90;;;;;;4995597;28;20022;-68
2022/11/17 11:32:03;;;;;;;3.72;0.90;;;14.40;99.90;;;;;;4988545;28;20104;-67
2022/11/17 11:34:55;;;;;;;13.43;2.08;;;14.40;99.90;;;;;;5000529;28;20030;-67
2022/11/17 11:37:28;;;;;;;7.65;1.10;;;14.30;99.90;;;;;;4990655;28;20515;-67
2022/11/17 11:40:09;;;;;;;6.15;1.40;;;14.40;99.90;;;;;;4996527;28;20026;-69
2022/11/17 11:42:51;;;;;;;3.78;0.90;;;14.30;99.90;;;;;;4996355;28;20037;-70
2022/11/17 11:45:46;;;;;;;6.60;1.25;;;14.30;99.90;;;;;;4995558;28;20023;-65
2022/11/17 11:48:15;;;;;;;6.43;1.40;;;14.20;99.90;;;;;;4958519;28;20487;-70
2022/11/17 11:51:01;;;;;;;4.70;1.13;;;14.00;99.90;;;;;;4990552;28;20476;-69
2022/11/17 11:53:45;;;;;;;4.28;1.13;;;14.10;99.90;;;;;;4996605;28;20030;-68
2022/11/17 11:56:16;;;;;;;4.43;1.10;;;14.10;99.90;;;;;;4994853;28;20037;-68
2022/11/17 11:59:17;;;;;;;8.02;2.15;;;14.10;99.90;;;;;;4996522;28;20037;-68
2022/11/17 12:01:46;;;;;;;9.68;1.38;;;14.20;99.90;;;;;;4996749;28;20019;-69
2022/11/17 12:04:33;;;;;;;7.63;1.17;;;14.30;99.90;;;;;;4994866;28;20026;-69
2022/11/17 12:07:14;;;;;;;7.25;1.70;;;14.50;99.90;;;;;;4976609;28;20026;-68
2022/11/17 12:09:55;;;;;;;8.38;1.33;;;14.50;99.90;;;;;;4976718;28;20030;-69
2022/11/17 12:12:30;;;;;;;9.77;1.50;;;14.60;99.90;;;;;;4977946;28;20023;-68
2022/11/17 12:15:17;;;;;;;8.48;1.38;;;14.60;99.90;;;;;;4978285;28;20114;-70
2022/11/17 12:18:02;;;;;;;6.32;1.48;;;14.60;99.90;;;;;;4976114;28;20484;-71
2022/11/17 12:20:37;;;;;;;8.27;1.92;;;14.50;99.90;;;;;;4976869;28;20054;-71
2022/11/17 12:23:09;;;;;;;10.38;1.45;;;14.60;99.90;;;;;;4977472;28;20041;-71
2022/11/17 12:25:42;;;;;;;7.32;1.45;;;14.60;99.90;;;;;;4976867;28;20031;-71
2022/11/17 12:28:35;;;;;;;6.88;1.42;;;14.60;99.90;;;;;;4978271;28;20110;-71
2022/11/17 12:31:08;;;;;;;8.77;1.42;;;14.70;99.90;;;;;;4978299;28;20034;-70
2022/11/17 12:33:52;;;;;;;7.93;1.98;;;14.80;99.90;;;;;;4976925;28;20029;-70
2022/11/17 12:36:26;;;;;;;11.27;2.00;;;14.90;99.90;;;;;;4977826;28;20050;-71
2022/11/17 12:38:54;;;;;;;7.65;1.98;;;14.90;99.90;;;;;;4975448;28;20026;-70
2022/11/17 12:41:47;;;;;;;6.28;1.27;;;14.40;99.90;;;;;;4976523;28;20114;-71
2022/11/17 12:44:37;;;;;;;9.20;1.52;;;14.40;99.90;;;;;;4977492;28;20031;-70
2022/11/17 12:47:16;;;;;;;12.65;1.63;;;14.40;99.90;;;;;;4976128;28;20018;-72
2022/11/17 12:50:03;;;;;;;6.53;1.52;;;14.30;99.90;;;;;;4991274;28;20030;-72
2022/11/17 12:53:03;;;;;;;8.47;1.67;;;14.20;99.90;;;;;;4980377;28;20027;-72
2022/11/17 12:55:50;;;;;;;13.05;4.18;;;13.90;99.90;;;;;;4984189;28;20022;-72
2022/11/17 12:58:34;;;;;;;4.70;1.42;;;13.80;99.90;;;;;;4994184;28;20117;-73
2022/11/17 13:01:19;;;;;;;5.93;1.67;;;13.60;99.90;;;;;;4995392;28;20027;-71
2022/11/17 13:04:05;;;;;;;10.48;1.50;;;13.60;99.90;;;;;;4994218;28;20037;-71
2022/11/17 13:06:30;;;;;;;7.10;1.00;;;13.60;99.90;;;;;;4979220;28;20391;-71
2022/11/17 13:09:04;;;;;;;5.10;1.20;;;13.60;99.90;;;;;;4974404;28;20029;-74
2022/11/17 13:11:30;;;;;;;6.28;0.93;;;13.50;99.90;;;;;;4975044;28;20423;-72
2022/11/17 13:14:10;;;;;;;3.67;0.93;;;13.40;99.90;;;;;;4975861;28;20034;-71
2022/11/17 13:16:42;;;;;;;7.38;4.65;;;13.40;99.90;;;;;;4975555;28;20491;-71
2022/11/17 13:19:26;;;;;;;8.50;1.45;;;13.30;99.90;;;;;;4975717;28;20027;-70
2022/11/17 13:22:02;;;;;;;6.57;1.10;;;13.40;99.90;;;;;;4976082;28;20130;-70
2022/11/17 13:24:34;;;;;;;4.13;1.10;;;13.40;99.90;;;;;;4975939;28;20061;-71
2022/11/17 13:27:02;;;;;;;4.65;1.35;;;13.40;99.90;;;;;;4977286;28;20022;-71
2022/11/17 13:29:28;;;;;;;3.45;1.00;;;13.40;99.90;;;;;;4976782;28;20022;-71
2022/11/17 13:32:12;;;;;;;4.95;1.35;;;13.50;99.90;;;;;;4977816;28;20487;-70
2022/11/17 13:34:55;;;;;;;3.88;1.17;;;13.50;99.90;;;;;;4976255;28;20479;-70
2022/11/17 13:37:26;;;;;;;3.53;1.10;;;13.60;99.90;;;;;;4975187;28;20475;-70
2022/11/17 13:40:00;;;;;;;4.55;1.30;;;13.60;99.90;;;;;;4975111;28;20026;-70
2022/11/17 13:42:30;;;;;;;7.65;1.23;;;13.70;99.90;;;;;;4975037;28;20031;-71
2022/11/17 13:45:00;;;;;;;6.40;1.48;;;13.70;99.90;;;;;;4974874;28;20046;-69
2022/11/17 13:47:27;;;;;;;4.55;1.23;;;13.70;99.90;;;;;;4975162;28;20023;-68
2022/11/17 13:49:53;;;;;;;6.95;1.02;;;13.80;99.90;;;;;;4973475;28;20023;-68
2022/11/17 13:52:34;;;;;;;10.20;1.50;;;13.70;99.90;;;;;;4974966;28;20049;-67
2022/11/17 13:55:00;;;;;;;4.00;1.23;;;13.50;99.90;;;;;;4974879;28;20392;-69
2022/11/17 13:57:27;;;;;;;5.50;1.23;;;13.40;99.90;;;;;;4975178;28;20027;-70
2022/11/17 13:59:54;;;;;;;6.63;1.27;;;13.40;99.90;;;;;;4974224;28;20034;-73
2022/11/17 14:02:20;;;;;;;8.07;1.50;;;13.30;99.90;;;;;;4975537;28;20429;-72
2022/11/17 14:05:05;;;;;;;7.00;2.13;;;13.10;99.90;;;;;;4978853;28;20035;-71
2022/11/17 14:07:38;;;;;;;6.85;1.38;;;13.10;99.90;;;;;;4973068;28;20109;-71
2022/11/17 14:10:20;;;;;;;5.78;1.60;;;13.10;99.90;;;;;;4981311;28;20045;-70
2022/11/17 14:12:47;;;;;;;3.42;1.08;;;13.00;99.90;;;;;;4994126;28;20022;-71
2022/11/17 14:15:28;;;;;;;8.85;1.88;;;12.70;99.90;;;;;;4993902;28;20463;-71
2022/11/17 14:17:55;;;;;;;7.97;1.40;;;12.40;99.90;;;;;;4993252;28;20038;-71
2022/11/17 14:20:24;;;;;;;9.40;1.70;;;12.20;99.90;;;;;;4991747;28;20118;-71
2022/11/17 14:23:08;;;;;;;6.00;1.40;;;12.10;99.90;;;;;;4991014;28;20030;-71
2022/11/17 14:25:39;;;;;;;6.43;1.35;;;12.10;99.90;;;;;;4993615;28;20034;-70
2022/11/17 14:28:12;;;;;;;9.50;2.08;;;12.10;99.90;;;;;;4997846;28;20027;-70
2022/11/17 14:30:38;;;;;;;6.60;1.35;;;12.10;99.90;;;;;;4979496;28;20030;-70
2022/11/17 14:33:04;;;;;;;6.72;1.50;;;12.00;99.90;;;;;;4972782;28;20031;-71
2022/11/17 14:35:29;;;;;;;5.83;1.33;;;12.00;99.90;;;;;;4988372;28;20057;-72
2022/11/17 14:37:55;;;;;;;9.50;1.50;;;12.00;99.90;;;;;;4992199;28;20031;-73
2022/11/17 14:40:21;;;;;;;8.03;1.47;;;12.00;99.90;;;;;;4995564;28;20062;-72
2022/11/17 14:42:46;;;;;;;9.35;1.80;;;12.00;99.90;;;;;;4998313;28;20286;-71
2022/11/17 14:45:15;;;;;;;7.50;1.67;;;12.00;99.90;;;;;;4998140;28;20045;-73
2022/11/17 14:47:41;;;;;;;8.80;2.60;;;12.00;99.90;;;;;;4998047;28;20030;-72
2022/11/17 14:50:12;;;;;;;8.20;2.00;;;12.00;99.90;;;;;;4997532;28;20023;-72
2022/11/17 14:52:41;;;;;;;10.98;2.00;;;12.00;99.90;;;;;;4999921;28;20499;-72
2022/11/17 14:55:13;;;;;;;8.00;1.70;;;12.10;99.90;;;;;;4998649;28;20027;-73
2022/11/17 14:57:40;;;;;;;12.32;2.65;;;12.10;99.90;;;;;;4996390;28;20023;-71
2022/11/17 15:00:08;;;;;;;11.43;1.63;;;12.10;99.90;;;;;;4997475;28;20378;-72
2022/11/17 15:02:35;;;;;;;10.73;2.15;;;12.10;99.90;;;;;;4991402;28;20023;-71
2022/11/17 15:05:01;;;;;;;14.60;5.85;;;12.10;99.90;;;;;;4995815;28;20018;-72
2022/11/17 15:07:27;;;;;;;12.35;4.05;;;12.20;99.90;;;;;;4995770;28;20399;-72
2022/11/17 15:09:53;;;;;;;10.32;2.90;;;12.20;99.90;;;;;;4995706;28;20046;-71
2022/11/17 15:12:18;;;;;;;17.00;6.03;;;12.20;99.90;;;;;;4996396;28;20070;-72
2022/11/17 15:14:47;;;;;;;11.55;3.30;;;12.20;99.90;;;;;;4994790;28;20042;-70
2022/11/17 15:17:13;;;;;;;15.38;4.00;;;12.30;99.90;;;;;;4995307;28;20436;-72
2022/11/17 15:19:39;;;;;;;11.57;3.50;;;12.30;99.90;;;;;;4996063;28;20411;-72
2022/11/17 15:22:05;;;;;;;17.73;4.95;;;12.30;99.90;;;;;;4992747;28;20037;-72
2022/11/17 15:24:30;;;;;;;9.60;2.90;;;12.10;99.90;;;;;;4996149;28;20030;-72
2022/11/17 15:26:56;;;;;;;14.20;2.83;;;12.00;99.90;;;;;;4996636;28;20264;-70
2022/11/17 15:29:22;;;;;;;9.63;2.58;;;12.00;99.90;;;;;;4995613;28;20030;-71
2022/11/17 15:31:48;;;;;;;15.30;4.30;;;11.90;99.90;;;;;;4996338;28;20395;-70
2022/11/17 15:34:14;;;;;;;13.00;3.30;;;11.80;99.90;;;;;;4996145;28;20034;-70
2022/11/17 15:36:40;;;;;;;15.32;4.10;;;11.80;99.90;;;;;;4994902;28;20498;-71
2022/11/17 15:39:05;;;;;;;19.33;5.88;;;11.80;99.90;;;;;;4996184;28;20079;-71
2022/11/17 15:41:31;;;;;;;14.45;3.47;;;11.70;99.90;;;;;;4994974;28;20034;-70
2022/11/17 15:43:57;;;;;;;16.00;4.57;;;11.70;99.90;;;;;;4994866;28;20046;-71
2022/11/17 15:46:23;;;;;;;21.33;3.77;;;11.70;99.90;;;;;;4995599;28;20029;-71
2022/11/17 15:48:51;;;;;;;17.93;3.97;;;11.70;99.90;;;;;;4993112;28;20262;-71
2022/11/17 15:51:22;;;;;;;15.20;3.35;;;11.70;99.90;;;;;;4994249;28;20280;-69
2022/11/17 15:53:49;;;;;;;19.33;3.70;;;11.70;99.90;;;;;;4996390;28;20030;-70
2022/11/17 15:56:18;;;;;;;14.82;3.00;;;11.70;99.90;;;;;;4994720;28;20026;-72
2022/11/17 15:58:45;;;;;;;20.48;3.67;;;11.70;99.90;;;;;;4996040;28;20026;-70
2022/11/17 16:01:10;;;;;;;18.92;3.10;;;11.80;99.90;;;;;;4995902;28;20538;-69
2022/11/17 16:03:37;;;;;;;16.27;3.40;;;11.70;99.90;;;;;;4996081;28;20035;-71
2022/11/17 16:06:03;;;;;;;12.93;3.30;;;11.70;99.90;;;;;;4994592;28;20030;-75
2022/11/17 16:08:29;;;;;;;16.08;3.67;;;11.70;99.90;;;;;;4995802;28;20114;-71
2022/11/17 16:10:56;;;;;;;15.38;2.88;;;11.60;99.90;;;;;;5001976;28;20026;-71
2022/11/17 16:13:22;;;;;;;11.98;3.38;;;11.70;99.90;;;;;;4995228;28;20069;-71
2022/11/17 16:15:48;;;;;;;9.67;2.90;;;11.70;99.90;;;;;;4995904;28;20058;-72
2022/11/17 16:18:13;;;;;;;11.18;2.90;;;11.70;99.90;;;;;;4994753;28;20064;-72
2022/11/17 16:20:39;;;;;;;9.70;2.83;;;11.80;99.90;;;;;;4994628;28;20054;-72
2022/11/17 16:23:05;;;;;;;15.57;3.43;;;11.70;99.90;;;;;;4995342;28;20034;-70
2022/11/17 16:25:31;;;;;;;17.00;3.20;;;11.70;99.90;;;;;;4995155;28;20030;-71
2022/11/17 16:27:56;;;;;;;16.45;3.40;;;11.70;99.90;;;;;;4979754;28;20030;-70
2022/11/17 16:30:25;;;;;;;18.33;4.47;;;11.70;99.90;;;;;;4975980;28;20031;-71
2022/11/17 16:32:51;;;;;;;18.20;3.50;;;11.70;99.90;;;;;;4975941;28;20038;-70
2022/11/17 16:35:16;;;;;;;17.93;3.77;;;11.80;99.90;;;;;;4978065;28;20041;-70
2022/11/17 16:37:42;;;;;;;15.40;3.30;;;11.70;99.90;;;;;;4990550;28;20311;-72
2022/11/17 16:40:08;;;;;;;18.47;4.97;;;11.70;99.90;;;;;;4987444;28;20824;-71
2022/11/17 16:42:34;;;;;;;18.83;4.90;;;11.80;99.90;;;;;;4998742;28;20064;-72
2022/11/17 16:44:59;;;;;;;18.20;5.30;;;11.70;99.90;;;;;;4996576;28;20058;-72
2022/11/17 16:47:25;;;;;;;19.10;6.17;;;11.60;99.90;;;;;;4995744;28;20030;-73
2022/11/17 16:49:50;;;;;;;19.97;4.97;;;11.60;99.90;;;;;;4995076;28;20101;-73
2022/11/17 16:52:16;;;;;;;17.43;5.47;;;11.60;99.90;;;;;;4994439;28;20026;-71
2022/11/17 16:54:41;;;;;;;18.23;5.30;;;11.60;99.90;;;;;;4997743;28;20049;-72
2022/11/17 16:57:07;;;;;;;19.83;5.00;;;11.60;99.90;;;;;;4999895;28;20031;-73
2022/11/17 16:59:33;;;;;;;17.47;4.33;;;11.70;99.90;;;;;;4997937;28;20033;-73
2022/11/17 17:01:59;;;;;;;14.63;4.10;;;11.80;99.90;;;;;;4995324;28;20038;-72
2022/11/17 17:04:28;;;;;;;17.93;5.50;;;11.70;99.90;;;;;;4994658;28;20022;-73
2022/11/17 17:06:54;;;;;;;19.88;4.45;;;11.70;99.90;;;;;;4995228;28;20018;-71
2022/11/17 17:09:20;;;;;;;13.13;3.80;;;11.90;99.90;;;;;;4995253;28;20094;-72
2022/11/17 17:11:45;;;;;;;13.17;4.10;;;12.00;99.90;;;;;;4993751;28;20565;-71
2022/11/17 17:14:12;;;;;;;15.27;3.80;;;11.90;99.90;;;;;;4994807;28;20069;-71
2022/11/17 17:16:38;;;;;;;13.63;4.80;;;11.90;99.90;;;;;;4995248;28;20038;-72
2022/11/17 17:19:06;;;;;;;17.30;5.47;;;12.10;99.90;;;;;;4994813;28;20365;-71
2022/11/17 17:21:32;;;;;;;21.13;5.75;;;12.10;99.90;;;;;;4995010;28;20037;-71
2022/11/17 17:23:57;;;;;;;20.42;5.60;;;12.00;99.90;;;;;;4995382;28;20026;-70
2022/11/17 17:26:25;;;;;;;14.47;5.60;;;11.90;99.90;;;;;;4994549;28;20026;-72
2022/11/17 17:28:54;;;;;;;15.15;4.88;;;11.80;99.90;;;;;;4994453;28;20027;-71
2022/11/17 17:31:21;;;;;;;18.33;6.80;;;11.90;99.90;;;;;;4994587;28;20151;-71
2022/11/17 17:33:47;;;;;;;20.13;6.18;;;12.00;99.90;;;;;;4994959;28;20049;-70
2022/11/17 17:36:15;;;;;;;18.85;5.00;;;11.90;99.90;;;;;;4995224;28;20455;-70
2022/11/17 17:38:41;;;;;;;22.58;6.85;;;11.70;99.90;;;;;;4994367;28;20026;-70
2022/11/17 17:41:15;;;;;;;22.55;6.90;;;11.60;99.90;;;;;;4994300;28;20034;-70
2022/11/17 17:43:42;;;;;;;14.13;4.10;;;11.60;99.90;;;;;;4993985;28;20117;-70
2022/11/17 17:46:10;;;;;;;15.90;4.13;;;11.60;99.90;;;;;;4994115;28;20026;-71
2022/11/17 17:48:38;;;;;;;16.23;4.65;;;11.50;99.90;;;;;;4994320;28;20109;-71
2022/11/17 17:51:12;;;;;;;14.25;3.63;;;11.60;99.90;;;;;;4992548;28;20028;-70
2022/11/17 17:53:39;;;;;;;12.23;3.20;;;11.70;99.90;;;;;;4994049;28;20045;-72
2022/11/17 17:56:11;;;;;;;14.60;4.00;;;11.70;99.90;;;;;;4993875;28;20101;-72
2022/11/17 17:58:41;;;;;;;18.70;4.20;;;11.70;99.90;;;;;;4993649;28;20064;-70
2022/11/17 18:01:08;;;;;;;12.20;4.28;;;11.60;99.90;;;;;;4993463;28;20029;-71
2022/11/17 18:03:33;;;;;;;14.43;3.72;;;11.50;99.90;;;;;;4976057;28;20030;-74
2022/11/17 18:05:59;;;;;;;9.05;2.95;;;11.50;99.90;;;;;;4975468;28;20019;-71
2022/11/17 18:08:25;;;;;;;16.58;4.40;;;11.50;99.90;;;;;;4983195;28;20026;-68
2022/11/17 18:10:51;;;;;;;12.75;4.38;;;11.50;99.90;;;;;;4993132;28;20034;-71